sensor_id;sensor_type;location;lat;lon;timestamp;pressure;altitude;pressure_sealevel;temperature;humidity
69630;BME280;56857;52.212;5.496;2022-09-09T00:04:33;100794.22;;;15.12;97.01
69630;BME280;56857;52.212;5.496;2022-09-09T00:07:19;100787.44;;;15.10;96.79
69630;BME280;56857;52.212;5.496;2022-09-09T00:09:48;100781.47;;;15.07;96.78
69630;BME280;56857;52.212;5.496;2022-09-09T00:12:27;100786.00;;;15.07;96.68
69630;BME280;56857;52.212;5.496;2022-09-09T00:15:11;100778.41;;;15.04;96.92
69630;BME280;56857;52.212;5.496;2022-09-09T00:22:32;100766.44;;;15.00;97.00
69630;BME280;56857;52.212;5.496;2022-09-09T00:25:10;100765.22;;;15.02;96.68
69630;BME280;56857;52.212;5.496;2022-09-09T00:27:46;100763.59;;;15.01;96.92
69630;BME280;56857;52.212;5.496;2022-09-09T00:30:21;100758.25;;;15.01;96.70
69630;BME280;56857;52.212;5.496;2022-09-09T00:32:49;100765.63;;;14.99;96.92
69630;BME280;56857;52.212;5.496;2022-09-09T00:35:27;100764.41;;;14.95;96.87
69630;BME280;56857;52.212;5.496;2022-09-09T00:37:56;100773.00;;;14.97;97.21
69630;BME280;56857;52.212;5.496;2022-09-09T00:40:35;100767.06;;;14.95;97.51
69630;BME280;56857;52.212;5.496;2022-09-09T00:43:28;100765.22;;;14.96;97.42
69630;BME280;56857;52.212;5.496;2022-09-09T00:57:22;100764.97;;;14.91;97.83
69630;BME280;56857;52.212;5.496;2022-09-09T00:59:51;100767.66;;;14.91;97.88
69630;BME280;56857;52.212;5.496;2022-09-09T01:02:34;100766.00;;;14.90;98.48
69630;BME280;56857;52.212;5.496;2022-09-09T01:05:13;100766.41;;;14.87;98.26
69630;BME280;56857;52.212;5.496;2022-09-09T01:07:47;100766.81;;;14.83;98.40
69630;BME280;56857;52.212;5.496;2022-09-09T01:10:35;100775.84;;;14.82;98.23
69630;BME280;56857;52.212;5.496;2022-09-09T01:13:11;100770.69;;;14.81;98.46
69630;BME280;56857;52.212;5.496;2022-09-09T01:15:39;100768.41;;;14.78;98.64
69630;BME280;56857;52.212;5.496;2022-09-09T01:18:17;100769.66;;;14.75;98.85
69630;BME280;56857;52.212;5.496;2022-09-09T01:20:49;100777.66;;;14.75;99.32
69630;BME280;56857;52.212;5.496;2022-09-09T01:26:18;100774.53;;;14.72;99.31
69630;BME280;56857;52.212;5.496;2022-09-09T01:28:49;100771.28;;;14.70;99.44
69630;BME280;56857;52.212;5.496;2022-09-09T01:31:19;100768.19;;;14.66;99.19
69630;BME280;56857;52.212;5.496;2022-09-09T01:33:45;100763.84;;;14.65;99.51
69630;BME280;56857;52.212;5.496;2022-09-09T01:36:17;100757.69;;;14.65;99.45
69630;BME280;56857;52.212;5.496;2022-09-09T01:38:46;100751.94;;;14.61;99.50
69630;BME280;56857;52.212;5.496;2022-09-09T01:41:11;100756.63;;;14.59;99.55
69630;BME280;56857;52.212;5.496;2022-09-09T01:43:37;100756.03;;;14.57;99.63
69630;BME280;56857;52.212;5.496;2022-09-09T01:46:04;100750.88;;;14.55;99.35
69630;BME280;56857;52.212;5.496;2022-09-09T01:48:35;100748.41;;;14.54;99.40
69630;BME280;56857;52.212;5.496;2022-09-09T01:51:01;100754.75;;;14.53;99.63
69630;BME280;56857;52.212;5.496;2022-09-09T01:53:26;100756.81;;;14.51;99.64
69630;BME280;56857;52.212;5.496;2022-09-09T01:56:02;100748.53;;;14.46;99.79
69630;BME280;56857;52.212;5.496;2022-09-09T02:01:39;100755.91;;;14.44;99.67
69630;BME280;56857;52.212;5.496;2022-09-09T02:07:19;100756.06;;;14.35;99.51
69630;BME280;56857;52.212;5.496;2022-09-09T02:09:57;100755.84;;;14.37;99.52
69630;BME280;56857;52.212;5.496;2022-09-09T02:12:25;100750.53;;;14.37;99.47
69630;BME280;56857;52.212;5.496;2022-09-09T02:14:56;100741.50;;;14.31;99.70
69630;BME280;56857;52.212;5.496;2022-09-09T02:17:28;100735.13;;;14.32;99.38
69630;BME280;56857;52.212;5.496;2022-09-09T02:20:10;100739.81;;;14.30;99.43
69630;BME280;56857;52.212;5.496;2022-09-09T02:22:38;100728.97;;;14.32;99.47
69630;BME280;56857;52.212;5.496;2022-09-09T02:25:07;100733.69;;;14.30;99.61
69630;BME280;56857;52.212;5.496;2022-09-09T02:27:33;100723.22;;;14.28;99.69
69630;BME280;56857;52.212;5.496;2022-09-09T02:30:00;100730.59;;;14.26;99.30
69630;BME280;56857;52.212;5.496;2022-09-09T02:32:28;100724.63;;;14.24;99.57
69630;BME280;56857;52.212;5.496;2022-09-09T02:35:03;100735.09;;;14.26;99.41
69630;BME280;56857;52.212;5.496;2022-09-09T02:37:35;100729.94;;;14.24;99.69
69630;BME280;56857;52.212;5.496;2022-09-09T02:40:04;100730.75;;;14.25;99.63
69630;BME280;56857;52.212;5.496;2022-09-09T02:42:30;100729.13;;;14.24;99.43
69630;BME280;56857;52.212;5.496;2022-09-09T02:44:55;100729.94;;;14.24;99.57
69630;BME280;56857;52.212;5.496;2022-09-09T02:47:46;100727.28;;;14.24;99.75
69630;BME280;56857;52.212;5.496;2022-09-09T02:50:22;100730.97;;;14.23;99.52
69630;BME280;56857;52.212;5.496;2022-09-09T02:53:18;100729.13;;;14.24;99.70
69630;BME280;56857;52.212;5.496;2022-09-09T02:55:47;100730.97;;;14.23;99.33
69630;BME280;56857;52.212;5.496;2022-09-09T02:58:15;100732.81;;;14.23;99.53
69630;BME280;56857;52.212;5.496;2022-09-09T03:00:41;100738.16;;;14.23;99.52
69630;BME280;56857;52.212;5.496;2022-09-09T03:03:08;100725.22;;;14.20;99.47
69630;BME280;56857;52.212;5.496;2022-09-09T03:05:34;100724.56;;;14.18;99.75
69630;BME280;56857;52.212;5.496;2022-09-09T03:07:59;100731.56;;;14.19;99.65
69630;BME280;56857;52.212;5.496;2022-09-09T03:10:25;100720.28;;;14.17;99.35
69630;BME280;56857;52.212;5.496;2022-09-09T03:12:50;100729.09;;;14.17;99.49
69630;BME280;56857;52.212;5.496;2022-09-09T03:15:16;100723.97;;;14.16;99.35
69630;BME280;56857;52.212;5.496;2022-09-09T03:17:41;100726.63;;;14.16;99.17
69630;BME280;56857;52.212;5.496;2022-09-09T03:20:07;100725.78;;;14.15;99.61
69630;BME280;56857;52.212;5.496;2022-09-09T03:22:32;100725.19;;;14.13;99.37
69630;BME280;56857;52.212;5.496;2022-09-09T03:24:59;100731.72;;;14.10;99.62
69630;BME280;56857;52.212;5.496;2022-09-09T03:27:24;100730.06;;;14.09;99.52
69630;BME280;56857;52.212;5.496;2022-09-09T03:29:49;100737.88;;;14.11;99.48
69630;BME280;56857;52.212;5.496;2022-09-09T03:32:15;100735.41;;;14.09;99.43
69630;BME280;56857;52.212;5.496;2022-09-09T03:34:40;100731.06;;;14.08;99.49
69630;BME280;56857;52.212;5.496;2022-09-09T03:37:06;100735.78;;;14.06;99.45
69630;BME280;56857;52.212;5.496;2022-09-09T03:39:31;100734.13;;;14.05;99.39
69630;BME280;56857;52.212;5.496;2022-09-09T03:41:57;100730.00;;;14.03;99.63
69630;BME280;56857;52.212;5.496;2022-09-09T03:44:23;100728.38;;;14.02;99.85
69630;BME280;56857;52.212;5.496;2022-09-09T03:46:49;100716.47;;;13.98;99.53
69630;BME280;56857;52.212;5.496;2022-09-09T03:49:14;100711.31;;;13.96;99.56
69630;BME280;56857;52.212;5.496;2022-09-09T03:51:40;100725.28;;;13.98;99.82
69630;BME280;56857;52.212;5.496;2022-09-09T03:54:07;100720.75;;;13.99;99.83
69630;BME280;56857;52.212;5.496;2022-09-09T03:56:32;100719.69;;;13.93;99.60
69630;BME280;56857;52.212;5.496;2022-09-09T03:58:57;100720.53;;;13.94;100.00
69630;BME280;56857;52.212;5.496;2022-09-09T04:01:23;100714.34;;;13.93;99.96
69630;BME280;56857;52.212;5.496;2022-09-09T04:03:49;100714.19;;;13.95;100.00
69630;BME280;56857;52.212;5.496;2022-09-09T04:06:15;100712.94;;;13.90;100.00
69630;BME280;56857;52.212;5.496;2022-09-09T04:08:41;100712.09;;;13.90;100.00
69630;BME280;56857;52.212;5.496;2022-09-09T04:11:06;100721.34;;;13.94;100.00
69630;BME280;56857;52.212;5.496;2022-09-09T04:13:36;100712.09;;;13.90;100.00
69630;BME280;56857;52.212;5.496;2022-09-09T04:16:02;100713.53;;;13.93;100.00
69630;BME280;56857;52.212;5.496;2022-09-09T04:18:28;100714.56;;;13.91;100.00
69630;BME280;56857;52.212;5.496;2022-09-09T04:20:54;100711.25;;;13.89;100.00
69630;BME280;56857;52.212;5.496;2022-09-09T04:23:19;100707.13;;;13.87;100.00
69630;BME280;56857;52.212;5.496;2022-09-09T04:25:47;100717.81;;;13.87;100.00
69630;BME280;56857;52.212;5.496;2022-09-09T04:28:16;100712.84;;;13.84;100.00
69630;BME280;56857;52.212;5.496;2022-09-09T04:30:43;100715.53;;;13.84;100.00
69630;BME280;56857;52.212;5.496;2022-09-09T04:33:09;100710.19;;;13.84;100.00
69630;BME280;56857;52.212;5.496;2022-09-09T04:35:35;100709.59;;;13.82;100.00
69630;BME280;56857;52.212;5.496;2022-09-09T04:38:02;100712.63;;;13.79;100.00
69630;BME280;56857;52.212;5.496;2022-09-09T04:40:28;100706.50;;;13.78;100.00
69630;BME280;56857;52.212;5.496;2022-09-09T04:42:53;100709.16;;;13.78;100.00
69630;BME280;56857;52.212;5.496;2022-09-09T04:45:18;100709.97;;;13.79;100.00
69630;BME280;56857;52.212;5.496;2022-09-09T04:47:44;100711.00;;;13.78;100.00
69630;BME280;56857;52.212;5.496;2022-09-09T04:50:09;100710.78;;;13.79;100.00
69630;BME280;56857;52.212;5.496;2022-09-09T04:52:35;100701.97;;;13.79;100.00
69630;BME280;56857;52.212;5.496;2022-09-09T04:55:00;100694.63;;;13.81;100.00
69630;BME280;56857;52.212;5.496;2022-09-09T04:57:26;100698.94;;;13.82;100.00
69630;BME280;56857;52.212;5.496;2022-09-09T04:59:51;100695.22;;;13.83;100.00
69630;BME280;56857;52.212;5.496;2022-09-09T05:02:16;100689.91;;;13.83;100.00
69630;BME280;56857;52.212;5.496;2022-09-09T05:04:42;100693.22;;;13.85;100.00
69630;BME280;56857;52.212;5.496;2022-09-09T05:07:07;100699.34;;;13.85;100.00
69630;BME280;56857;52.212;5.496;2022-09-09T05:09:32;100688.44;;;13.80;100.00
69630;BME280;56857;52.212;5.496;2022-09-09T05:11:58;100687.88;;;13.85;100.00
69630;BME280;56857;52.212;5.496;2022-09-09T05:14:23;100695.22;;;13.83;100.00
69630;BME280;56857;52.212;5.496;2022-09-09T05:16:49;100698.72;;;13.83;100.00
69630;BME280;56857;52.212;5.496;2022-09-09T05:19:14;100704.88;;;13.84;100.00
69630;BME280;56857;52.212;5.496;2022-09-09T05:21:39;100694.41;;;13.82;100.00
69630;BME280;56857;52.212;5.496;2022-09-09T05:24:05;100700.38;;;13.84;100.00
69630;BME280;56857;52.212;5.496;2022-09-09T05:26:30;100696.06;;;13.83;100.00
69630;BME280;56857;52.212;5.496;2022-09-09T05:28:55;100695.22;;;13.83;100.00
69630;BME280;56857;52.212;5.496;2022-09-09T05:31:21;100692.56;;;13.83;100.00
69630;BME280;56857;52.212;5.496;2022-09-09T05:33:47;100689.09;;;13.82;100.00
69630;BME280;56857;52.212;5.496;2022-09-09T05:36:15;100681.91;;;13.83;100.00
69630;BME280;56857;52.212;5.496;2022-09-09T05:38:43;100682.72;;;13.83;100.00
69630;BME280;56857;52.212;5.496;2022-09-09T05:41:10;100675.56;;;13.84;100.00
69630;BME280;56857;52.212;5.496;2022-09-09T05:43:35;100677.41;;;13.83;100.00
69630;BME280;56857;52.212;5.496;2022-09-09T05:48:29;100688.88;;;13.84;100.00
69630;BME280;56857;52.212;5.496;2022-09-09T05:50:54;100683.38;;;13.85;100.00
69630;BME280;56857;52.212;5.496;2022-09-09T05:53:20;100697.50;;;13.86;100.00
69630;BME280;56857;52.212;5.496;2022-09-09T05:55:45;100687.66;;;13.86;100.00
69630;BME280;56857;52.212;5.496;2022-09-09T05:58:11;100688.50;;;13.87;100.00
69630;BME280;56857;52.212;5.496;2022-09-09T06:00:36;100687.50;;;13.88;100.00
69630;BME280;56857;52.212;5.496;2022-09-09T06:03:01;100691.63;;;13.90;100.00
69630;BME280;56857;52.212;5.496;2022-09-09T06:05:27;100690.59;;;13.91;100.00
69630;BME280;56857;52.212;5.496;2022-09-09T06:07:53;100684.22;;;13.93;100.00
69630;BME280;56857;52.212;5.496;2022-09-09T06:10:18;100691.84;;;13.96;100.00
69630;BME280;56857;52.212;5.496;2022-09-09T06:12:44;100696.97;;;13.97;100.00
69630;BME280;56857;52.212;5.496;2022-09-09T06:15:10;100705.59;;;13.99;100.00
69630;BME280;56857;52.212;5.496;2022-09-09T06:17:35;100697.22;;;14.02;100.00
69630;BME280;56857;52.212;5.496;2022-09-09T06:20:00;100700.50;;;14.04;100.00
69630;BME280;56857;52.212;5.496;2022-09-09T06:22:26;100688.81;;;14.05;100.00
69630;BME280;56857;52.212;5.496;2022-09-09T06:24:51;100699.09;;;14.08;100.00
69630;BME280;56857;52.212;5.496;2022-09-09T06:27:17;100689.25;;;14.09;100.00
69630;BME280;56857;52.212;5.496;2022-09-09T06:29:42;100696.66;;;14.13;100.00
69630;BME280;56857;52.212;5.496;2022-09-09T06:32:07;100683.34;;;14.13;100.00
69630;BME280;56857;52.212;5.496;2022-09-09T06:34:33;100688.47;;;14.15;100.00
69630;BME280;56857;52.212;5.496;2022-09-09T06:36:58;100689.09;;;14.17;100.00
69630;BME280;56857;52.212;5.496;2022-09-09T06:39:23;100692.84;;;14.23;100.00
69630;BME280;56857;52.212;5.496;2022-09-09T06:41:49;100681.94;;;14.24;100.00
69630;BME280;56857;52.212;5.496;2022-09-09T06:44:15;100676.22;;;14.27;100.00
69630;BME280;56857;52.212;5.496;2022-09-09T06:46:41;100683.84;;;14.30;100.00
69630;BME280;56857;52.212;5.496;2022-09-09T06:49:08;100677.28;;;14.33;100.00
69630;BME280;56857;52.212;5.496;2022-09-09T06:51:35;100683.28;;;14.42;100.00
69630;BME280;56857;52.212;5.496;2022-09-09T06:54:01;100684.78;;;14.51;100.00
69630;BME280;56857;52.212;5.496;2022-09-09T06:56:29;100682.34;;;14.63;100.00
69630;BME280;56857;52.212;5.496;2022-09-09T06:58:57;100686.72;;;14.77;100.00
69630;BME280;56857;52.212;5.496;2022-09-09T07:01:27;100680.59;;;14.90;100.00
69630;BME280;56857;52.212;5.496;2022-09-09T07:03:54;100685.38;;;15.01;100.00
69630;BME280;56857;52.212;5.496;2022-09-09T07:06:25;100683.75;;;15.13;100.00
69630;BME280;56857;52.212;5.496;2022-09-09T07:08:52;100691.97;;;15.25;100.00
69630;BME280;56857;52.212;5.496;2022-09-09T07:11:19;100682.72;;;15.34;100.00
69630;BME280;56857;52.212;5.496;2022-09-09T07:13:45;100696.72;;;15.43;100.00
69630;BME280;56857;52.212;5.496;2022-09-09T07:16:13;100690.56;;;15.49;100.00
69630;BME280;56857;52.212;5.496;2022-09-09T07:18:39;100682.31;;;15.50;100.00
69630;BME280;56857;52.212;5.496;2022-09-09T07:21:05;100687.06;;;15.55;100.00
69630;BME280;56857;52.212;5.496;2022-09-09T07:23:31;100680.91;;;15.55;100.00
69630;BME280;56857;52.212;5.496;2022-09-09T07:25:57;100688.28;;;15.52;100.00
69630;BME280;56857;52.212;5.496;2022-09-09T07:28:22;100689.91;;;15.53;100.00
69630;BME280;56857;52.212;5.496;2022-09-09T07:30:58;100686.44;;;15.60;100.00
69630;BME280;56857;52.212;5.496;2022-09-09T07:33:24;100683.38;;;15.69;100.00
69630;BME280;56857;52.212;5.496;2022-09-09T07:35:51;100677.59;;;15.72;100.00
69630;BME280;56857;52.212;5.496;2022-09-09T07:38:17;100680.09;;;15.74;100.00
69630;BME280;56857;52.212;5.496;2022-09-09T07:40:42;100685.22;;;15.75;100.00
69630;BME280;56857;52.212;5.496;2022-09-09T07:43:08;100683.34;;;15.76;100.00
69630;BME280;56857;52.212;5.496;2022-09-09T07:45:34;100680.91;;;15.74;100.00
69630;BME280;56857;52.212;5.496;2022-09-09T07:48:00;100691.59;;;15.74;100.00
69630;BME280;56857;52.212;5.496;2022-09-09T07:50:26;100685.63;;;15.72;100.00
69630;BME280;56857;52.212;5.496;2022-09-09T07:52:52;100692.41;;;15.75;100.00
69630;BME280;56857;52.212;5.496;2022-09-09T07:55:17;100690.56;;;15.75;100.00
69630;BME280;56857;52.212;5.496;2022-09-09T07:57:43;100689.31;;;15.78;100.00
69630;BME280;56857;52.212;5.496;2022-09-09T08:00:11;100687.88;;;15.82;100.00
69630;BME280;56857;52.212;5.496;2022-09-09T08:02:37;100688.09;;;15.87;100.00
69630;BME280;56857;52.212;5.496;2022-09-09T08:05:02;100685.81;;;15.97;100.00
69630;BME280;56857;52.212;5.496;2022-09-09T08:07:28;100690.53;;;16.02;100.00
69630;BME280;56857;52.212;5.496;2022-09-09T08:09:53;100689.69;;;16.08;100.00
69630;BME280;56857;52.212;5.496;2022-09-09T08:12:19;100691.94;;;16.18;100.00
69630;BME280;56857;52.212;5.496;2022-09-09T08:14:44;100689.66;;;16.21;100.00
69630;BME280;56857;52.212;5.496;2022-09-09T08:17:10;100696.22;;;16.26;100.00
69630;BME280;56857;52.212;5.496;2022-09-09T08:19:35;100695.41;;;16.25;100.00
69630;BME280;56857;52.212;5.496;2022-09-09T08:22:01;100711.69;;;16.24;100.00
69630;BME280;56857;52.212;5.496;2022-09-09T08:24:27;100699.53;;;16.21;100.00
69630;BME280;56857;52.212;5.496;2022-09-09T08:26:52;100705.09;;;16.19;100.00
69630;BME280;56857;52.212;5.496;2022-09-09T08:29:18;100703.66;;;16.17;100.00
69630;BME280;56857;52.212;5.496;2022-09-09T08:31:46;100702.00;;;16.16;100.00
69630;BME280;56857;52.212;5.496;2022-09-09T08:34:13;100712.50;;;16.11;100.00
69630;BME280;56857;52.212;5.496;2022-09-09T08:36:43;100713.78;;;16.08;100.00
69630;BME280;56857;52.212;5.496;2022-09-09T08:39:11;100710.25;;;16.08;100.00
69630;BME280;56857;52.212;5.496;2022-09-09T08:52:42;100723.44;;;16.03;99.97
69630;BME280;56857;52.212;5.496;2022-09-09T08:57:57;100726.75;;;16.05;99.97
69630;BME280;56857;52.212;5.496;2022-09-09T09:00:33;100726.50;;;16.06;100.00
69630;BME280;56857;52.212;5.496;2022-09-09T09:03:15;100738.03;;;16.07;99.79
69630;BME280;56857;52.212;5.496;2022-09-09T09:06:04;100732.91;;;16.05;99.58
69630;BME280;56857;52.212;5.496;2022-09-09T09:08:38;100731.88;;;16.06;99.54
69630;BME280;56857;52.212;5.496;2022-09-09T09:11:09;100731.63;;;16.08;99.30
69630;BME280;56857;52.212;5.496;2022-09-09T09:14:09;100736.56;;;16.11;99.24
69630;BME280;56857;52.212;5.496;2022-09-09T09:16:56;100734.34;;;16.14;98.88
69630;BME280;56857;52.212;5.496;2022-09-09T09:19:24;100731.44;;;16.16;98.89
69630;BME280;56857;52.212;5.496;2022-09-09T09:24:55;100739.44;;;16.22;98.60
69630;BME280;56857;52.212;5.496;2022-09-09T09:27:34;100742.75;;;16.25;98.77
69630;BME280;56857;52.212;5.496;2022-09-09T09:30:21;100739.25;;;16.24;98.34
69630;BME280;56857;52.212;5.496;2022-09-09T09:32:56;100739.03;;;16.26;98.59
69630;BME280;56857;52.212;5.496;2022-09-09T09:35:23;100741.09;;;16.24;98.78
69630;BME280;56857;52.212;5.496;2022-09-09T09:37:48;100737.00;;;16.21;98.36
69630;BME280;56857;52.212;5.496;2022-09-09T09:40:16;100735.56;;;16.18;98.60
69630;BME280;56857;52.212;5.496;2022-09-09T09:43:00;100742.53;;;16.19;98.26
69630;BME280;56857;52.212;5.496;2022-09-09T09:45:42;100741.53;;;16.20;98.15
69630;BME280;56857;52.212;5.496;2022-09-09T09:48:10;100735.94;;;16.22;98.27
69630;BME280;56857;52.212;5.496;2022-09-09T09:50:48;100736.75;;;16.22;98.20
69630;BME280;56857;52.212;5.496;2022-09-09T09:55:54;100740.88;;;16.32;97.61
69630;BME280;56857;52.212;5.496;2022-09-09T09:58:21;100725.00;;;16.37;97.63
69630;BME280;56857;52.212;5.496;2022-09-09T10:00:51;100736.53;;;16.37;96.99
69630;BME280;56857;52.212;5.496;2022-09-09T10:03:33;100730.13;;;16.38;96.98
69630;BME280;56857;52.212;5.496;2022-09-09T10:06:00;100728.69;;;16.36;96.50
69630;BME280;56857;52.212;5.496;2022-09-09T10:08:26;100732.81;;;16.38;96.60
69630;BME280;56857;52.212;5.496;2022-09-09T10:19:03;100732.38;;;16.48;95.66
69630;BME280;56857;52.212;5.496;2022-09-09T10:21:45;100722.06;;;16.52;95.53
69630;BME280;56857;52.212;5.496;2022-09-09T10:24:39;100727.84;;;16.55;95.31
69630;BME280;56857;52.212;5.496;2022-09-09T10:30:14;100724.53;;;16.60;95.03
69630;BME280;56857;52.212;5.496;2022-09-09T10:35:32;100733.38;;;16.54;95.17
69630;BME280;56857;52.212;5.496;2022-09-09T10:40:43;100734.84;;;16.50;95.18
69630;BME280;56857;52.212;5.496;2022-09-09T10:43:20;100732.19;;;16.50;95.32
69630;BME280;56857;52.212;5.496;2022-09-09T10:57:33;100744.13;;;16.47;95.49
69630;BME280;56857;52.212;5.496;2022-09-09T11:00:05;100743.06;;;16.48;95.42
69630;BME280;56857;52.212;5.496;2022-09-09T11:02:33;100748.00;;;16.51;95.75
69630;BME280;56857;52.212;5.496;2022-09-09T11:07:39;100744.88;;;16.61;97.23
69630;BME280;56857;52.212;5.496;2022-09-09T11:12:45;100735.09;;;17.00;97.33
69630;BME280;56857;52.212;5.496;2022-09-09T11:15:28;100734.22;;;17.06;97.40
69630;BME280;56857;52.212;5.496;2022-09-09T11:17:58;100731.31;;;17.07;97.13
69630;BME280;56857;52.212;5.496;2022-09-09T11:20:26;100737.63;;;17.20;96.93
69630;BME280;56857;52.212;5.496;2022-09-09T11:22:56;100734.78;;;17.46;96.70
69630;BME280;56857;52.212;5.496;2022-09-09T11:28:19;100724.31;;;17.70;95.80
69630;BME280;56857;52.212;5.496;2022-09-09T11:33:48;100729.19;;;18.04;94.39
69630;BME280;56857;52.212;5.496;2022-09-09T11:41:38;100716.50;;;18.12;92.87
69630;BME280;56857;52.212;5.496;2022-09-09T11:44:12;100717.38;;;18.05;92.66
69630;BME280;56857;52.212;5.496;2022-09-09T11:46:41;100712.53;;;17.96;92.04
69630;BME280;56857;52.212;5.496;2022-09-09T11:49:29;100708.28;;;17.88;91.93
69630;BME280;56857;52.212;5.496;2022-09-09T11:52:25;100714.22;;;17.90;92.17
69630;BME280;56857;52.212;5.496;2022-09-09T11:55:12;100704.78;;;17.88;91.82
69630;BME280;56857;52.212;5.496;2022-09-09T11:58:00;100705.38;;;17.90;90.66
69630;BME280;56857;52.212;5.496;2022-09-09T12:00:42;100710.09;;;17.94;89.82
69630;BME280;56857;52.212;5.496;2022-09-09T12:05:58;100706.00;;;17.92;89.85
69630;BME280;56857;52.212;5.496;2022-09-09T12:08:27;100700.00;;;17.90;90.05
69630;BME280;56857;52.212;5.496;2022-09-09T12:10:56;100696.97;;;17.86;90.40
69630;BME280;56857;52.212;5.496;2022-09-09T12:13:24;100698.88;;;17.79;90.61
69630;BME280;56857;52.212;5.496;2022-09-09T12:15:55;100706.72;;;17.74;91.00
69630;BME280;56857;52.212;5.496;2022-09-09T12:18:38;100705.34;;;17.65;91.19
69630;BME280;56857;52.212;5.496;2022-09-09T12:23:40;100700.56;;;17.48;92.58
69630;BME280;56857;52.212;5.496;2022-09-09T12:26:21;100705.59;;;17.38;92.77
69630;BME280;56857;52.212;5.496;2022-09-09T12:31:56;100700.72;;;17.28;93.70
69630;BME280;56857;52.212;5.496;2022-09-09T12:34:40;100701.19;;;17.19;94.83
69630;BME280;56857;52.212;5.496;2022-09-09T12:39:59;100718.97;;;17.06;96.15
69630;BME280;56857;52.212;5.496;2022-09-09T12:42:26;100710.56;;;17.03;96.74
69630;BME280;56857;52.212;5.496;2022-09-09T12:44:53;100708.69;;;17.03;96.61
69630;BME280;56857;52.212;5.496;2022-09-09T12:47:22;100710.91;;;17.13;96.82
69630;BME280;56857;52.212;5.496;2022-09-09T12:49:49;100701.34;;;17.24;97.03
69630;BME280;56857;52.212;5.496;2022-09-09T12:52:35;100697.16;;;17.34;96.98
69630;BME280;56857;52.212;5.496;2022-09-09T12:55:03;100699.00;;;17.59;97.06
69630;BME280;56857;52.212;5.496;2022-09-09T12:57:35;100696.63;;;17.76;97.54
69630;BME280;56857;52.212;5.496;2022-09-09T13:00:22;100695.31;;;17.85;96.98
69630;BME280;56857;52.212;5.496;2022-09-09T13:02:58;100692.06;;;18.01;96.55
69630;BME280;56857;52.212;5.496;2022-09-09T13:05:33;100694.94;;;18.00;95.97
69630;BME280;56857;52.212;5.496;2022-09-09T13:08:04;100698.47;;;18.00;95.61
69630;BME280;56857;52.212;5.496;2022-09-09T13:10:37;100686.09;;;17.99;95.18
69630;BME280;56857;52.212;5.496;2022-09-09T13:13:19;100695.63;;;17.95;94.75
69630;BME280;56857;52.212;5.496;2022-09-09T13:15:57;100693.63;;;17.91;94.26
69630;BME280;56857;52.212;5.496;2022-09-09T13:18:26;100700.75;;;17.97;93.75
69630;BME280;56857;52.212;5.496;2022-09-09T13:20:53;100697.44;;;18.01;93.35
69630;BME280;56857;52.212;5.496;2022-09-09T13:23:20;100690.38;;;18.07;93.45
69630;BME280;56857;52.212;5.496;2022-09-09T13:26:24;100700.41;;;18.12;93.42
69630;BME280;56857;52.212;5.496;2022-09-09T13:28:51;100695.41;;;18.15;92.88
69630;BME280;56857;52.212;5.496;2022-09-09T13:31:22;100686.94;;;18.18;92.20
69630;BME280;56857;52.212;5.496;2022-09-09T13:33:48;100689.41;;;18.20;91.86
69630;BME280;56857;52.212;5.496;2022-09-09T13:36:13;100697.00;;;18.23;91.03
69630;BME280;56857;52.212;5.496;2022-09-09T13:38:56;100696.19;;;18.22;91.01
69630;BME280;56857;52.212;5.496;2022-09-09T13:41:24;100701.31;;;18.24;90.53
69630;BME280;56857;52.212;5.496;2022-09-09T13:43:51;100695.13;;;18.23;90.41
69630;BME280;56857;52.212;5.496;2022-09-09T13:46:37;100692.66;;;18.22;90.59
69630;BME280;56857;52.212;5.496;2022-09-09T13:51:35;100695.22;;;18.17;90.80
69630;BME280;56857;52.212;5.496;2022-09-09T13:54:06;100693.63;;;18.09;90.84
69630;BME280;56857;52.212;5.496;2022-09-09T13:56:34;100696.81;;;17.99;91.16
69630;BME280;56857;52.212;5.496;2022-09-09T13:58:59;100701.66;;;17.91;91.25
69630;BME280;56857;52.212;5.496;2022-09-09T14:01:24;100699.88;;;17.85;91.47
69630;BME280;56857;52.212;5.496;2022-09-09T14:03:50;100688.31;;;17.84;91.60
69630;BME280;56857;52.212;5.496;2022-09-09T14:06:15;100698.22;;;17.83;91.97
69630;BME280;56857;52.212;5.496;2022-09-09T14:08:40;100693.91;;;17.82;91.93
69630;BME280;56857;52.212;5.496;2022-09-09T14:11:10;100686.06;;;17.81;92.09
69630;BME280;56857;52.212;5.496;2022-09-09T14:13:38;100691.66;;;17.79;92.20
69630;BME280;56857;52.212;5.496;2022-09-09T14:16:04;100689.19;;;17.78;92.07
69630;BME280;56857;52.212;5.496;2022-09-09T14:18:29;100684.03;;;17.76;91.93
69630;BME280;56857;52.212;5.496;2022-09-09T14:20:55;100690.06;;;17.72;92.03
69630;BME280;56857;52.212;5.496;2022-09-09T14:23:20;100687.81;;;17.69;91.61
69630;BME280;56857;52.212;5.496;2022-09-09T14:25:45;100682.06;;;17.65;91.51
69630;BME280;56857;52.212;5.496;2022-09-09T14:28:17;100688.91;;;17.61;91.44
69630;BME280;56857;52.212;5.496;2022-09-09T14:30:44;100679.00;;;17.61;91.70
69630;BME280;56857;52.212;5.496;2022-09-09T14:33:11;100680.84;;;17.61;91.55
69630;BME280;56857;52.212;5.496;2022-09-09T14:35:37;100682.13;;;17.58;91.36
69630;BME280;56857;52.212;5.496;2022-09-09T14:38:03;100681.09;;;17.59;92.00
69630;BME280;56857;52.212;5.496;2022-09-09T14:40:29;100674.50;;;17.55;91.74
69630;BME280;56857;52.212;5.496;2022-09-09T14:42:54;100676.59;;;17.53;92.02
69630;BME280;56857;52.212;5.496;2022-09-09T14:45:20;100678.66;;;17.51;92.39
69630;BME280;56857;52.212;5.496;2022-09-09T14:47:45;100680.97;;;17.48;92.55